createdAt,value
2023-03-02T00:03:33.632Z,38.73
2023-03-02T00:08:37.786Z,38.79
2023-03-02T00:13:42.899Z,38.38
2023-03-02T00:18:46.328Z,38.12
2023-03-02T00:23:49.776Z,38.02
2023-03-02T00:28:54.597Z,38.37
2023-03-02T00:33:58.079Z,38.70
2023-03-02T00:39:01.567Z,39.21
2023-03-02T00:44:06.558Z,39.04
2023-03-02T00:49:09.990Z,39.00
2023-03-02T00:54:13.420Z,39.10
2023-03-02T00:59:27.202Z,39.55
2023-03-02T01:04:42.083Z,39.75
2023-03-02T01:09:46.333Z,39.70
2023-03-02T01:14:51.768Z,40.00
2023-03-02T01:19:56.370Z,39.87
2023-03-02T01:24:59.862Z,39.68
2023-03-02T01:30:05.596Z,39.85
2023-03-02T01:35:09.963Z,39.87
2023-03-02T01:40:15.041Z,39.67
2023-03-02T01:45:55.853Z,39.18
2023-03-02T01:51:19.174Z,39.91
2023-03-02T01:56:26.120Z,39.84
2023-03-02T02:01:30.495Z,40.71
2023-03-02T02:06:38.649Z,40.58
2023-03-02T02:11:43.364Z,40.97
2023-03-02T02:16:47.129Z,40.63
2023-03-02T02:21:52.147Z,41.20
2023-03-02T02:26:58.343Z,40.95
2023-03-02T02:32:03.957Z,41.92
2023-03-02T02:37:09.770Z,42.59
2023-03-02T02:42:17.473Z,42.39
2023-03-02T02:47:22.857Z,43.53
2023-03-02T02:52:28.162Z,43.51
2023-03-02T02:57:33.095Z,43.84
2023-03-02T03:02:42.115Z,44.47
2023-03-02T03:07:45.860Z,45.24
2023-03-02T03:12:51.239Z,46.10
2023-03-02T03:17:57.384Z,46.81
2023-03-02T03:23:02.782Z,45.59
2023-03-02T03:28:09.438Z,46.21
2023-03-02T03:33:13.088Z,46.96
2023-03-02T03:38:17.717Z,47.51
2023-03-02T03:43:24.547Z,48.26
2023-03-02T03:48:30.703Z,48.86
2023-03-02T03:53:34.255Z,49.89
2023-03-02T03:58:39.922Z,50.49
2023-03-02T04:03:43.593Z,49.88
2023-03-02T04:08:47.250Z,49.74
2023-03-02T04:13:52.266Z,50.54
2023-03-02T04:18:55.880Z,50.45
2023-03-02T04:23:59.392Z,50.72
2023-03-02T04:29:05.300Z,50.09
2023-03-02T04:34:10.516Z,50.08
2023-03-02T04:39:17.928Z,50.04
2023-03-02T04:44:27.145Z,50.04
2023-03-02T04:49:30.564Z,49.81
2023-03-02T04:54:34.047Z,49.71
2023-03-02T04:59:38.882Z,50.02
2023-03-02T05:04:42.564Z,49.62
2023-03-02T05:09:46.144Z,49.72
2023-03-02T05:14:51.013Z,49.69
2023-03-02T05:19:54.432Z,50.09
2023-03-02T05:24:57.810Z,50.22
2023-03-02T05:30:02.648Z,49.72
2023-03-02T05:35:06.961Z,48.94
2023-03-02T05:40:12.295Z,49.04
2023-03-02T05:45:21.913Z,49.02
2023-03-02T05:50:25.563Z,49.51
2023-03-02T05:55:29.829Z,49.78
2023-03-02T06:00:34.716Z,49.20
2023-03-02T06:05:38.300Z,48.90
2023-03-02T06:10:42.083Z,48.52
2023-03-02T06:15:46.968Z,48.39
2023-03-02T06:20:51.494Z,50.70
2023-03-02T06:25:55.626Z,49.05
2023-03-02T06:31:00.581Z,48.72
2023-03-02T06:36:04.423Z,49.25
2023-03-02T06:41:07.892Z,48.23
2023-03-02T06:46:13.068Z,48.26
2023-03-02T06:51:16.512Z,48.13
2023-03-02T06:56:19.960Z,48.37
2023-03-02T07:01:24.838Z,48.15
2023-03-02T07:06:28.346Z,47.55
2023-03-02T07:11:32.137Z,47.40
2023-03-02T07:16:37.359Z,47.48
2023-03-02T07:21:44.077Z,47.84
2023-03-02T07:26:47.463Z,47.57
2023-03-02T07:31:56.970Z,47.10
2023-03-02T07:37:00.475Z,47.10
2023-03-02T07:42:07.017Z,48.62
2023-03-02T07:47:11.985Z,48.22
2023-03-02T07:52:15.621Z,48.05
2023-03-02T07:57:19.097Z,48.18
2023-03-02T08:02:25.450Z,48.17
2023-03-02T08:07:29.018Z,47.54
2023-03-02T08:12:32.436Z,47.91
2023-03-02T08:17:37.334Z,49.51
2023-03-02T08:22:40.813Z,48.26
2023-03-02T08:27:44.776Z,47.04
2023-03-02T08:32:49.643Z,47.19
2023-03-02T08:37:54.092Z,46.89
2023-03-02T08:42:58.913Z,46.29
2023-03-02T08:48:04.198Z,46.61
2023-03-02T08:53:07.655Z,46.64
2023-03-02T08:58:11.175Z,46.34
2023-03-02T09:03:16.107Z,46.68
2023-03-02T09:08:19.615Z,46.16
2023-03-02T09:13:23.109Z,46.18
2023-03-02T09:18:30.908Z,45.89
2023-03-02T09:23:35.464Z,46.57
2023-03-02T09:28:39.746Z,45.99
2023-03-02T09:33:44.824Z,45.82
2023-03-02T09:38:48.400Z,45.68
2023-03-02T09:44:10.913Z,45.85
2023-03-02T09:49:24.144Z,45.14
2023-03-02T09:54:27.742Z,45.64
2023-03-02T09:59:36.010Z,44.61
2023-03-02T10:04:44.619Z,45.10
2023-03-02T10:09:48.187Z,46.13
2023-03-02T10:14:58.292Z,45.84
2023-03-02T10:25:19.088Z,46.51
2023-03-02T10:30:27.769Z,45.88
2023-03-02T10:35:33.077Z,46.10
2023-03-02T10:40:42.790Z,44.53
2023-03-02T10:45:46.950Z,43.58
2023-03-02T10:50:55.560Z,42.94
2023-03-02T10:55:59.154Z,42.61
2023-03-02T11:01:04.703Z,42.06
2023-03-02T11:06:19.542Z,42.19
2023-03-02T11:11:24.809Z,42.17
2023-03-02T11:16:32.552Z,41.28
2023-03-02T11:21:41.220Z,41.67
2023-03-02T11:26:47.441Z,40.76
2023-03-02T11:31:52.856Z,40.39
2023-03-02T11:37:03.426Z,40.62
2023-03-02T11:42:10.740Z,40.57
2023-03-02T11:47:14.618Z,40.87
2023-03-02T11:52:21.732Z,40.67
2023-03-02T11:57:29.066Z,40.26
2023-03-02T12:02:32.568Z,39.91
2023-03-02T12:07:37.457Z,39.66
2023-03-02T12:12:44.475Z,39.95
2023-03-02T12:17:47.970Z,39.63
2023-03-02T12:22:52.917Z,41.69
2023-03-02T12:27:56.516Z,41.82
2023-03-02T12:33:18.915Z,39.86
2023-03-02T12:38:30.825Z,40.02
2023-03-02T12:43:35.003Z,39.97
2023-03-02T12:48:43.417Z,39.55
2023-03-02T12:53:49.143Z,39.03
2023-03-02T12:58:54.358Z,39.28
2023-03-02T13:04:02.330Z,40.04
2023-03-02T13:09:07.494Z,39.44
2023-03-02T13:14:20.175Z,39.26
2023-03-02T13:19:24.213Z,38.98
2023-03-02T13:24:34.286Z,39.85
2023-03-02T13:29:37.796Z,39.52
2023-03-02T13:34:49.329Z,39.57
2023-03-02T13:39:58.121Z,39.56
2023-03-02T13:45:10.588Z,43.48
2023-03-02T13:50:19.200Z,41.80
2023-03-02T13:55:24.922Z,42.82
2023-03-02T14:00:32.664Z,41.80
2023-03-02T14:05:36.177Z,41.20
2023-03-02T14:10:41.215Z,42.64
2023-03-02T14:15:48.874Z,43.68
2023-03-02T14:20:52.461Z,44.51
2023-03-02T14:25:57.869Z,44.08
2023-03-02T14:31:01.336Z,44.06
2023-03-02T14:36:06.098Z,44.40
2023-03-02T14:41:14.912Z,43.80
2023-03-02T14:46:18.414Z,43.35
2023-03-02T14:51:23.580Z,44.26
2023-03-02T14:56:28.757Z,44.52
2023-03-02T15:01:32.694Z,44.40
2023-03-02T15:06:39.197Z,44.34
2023-03-02T15:11:44.429Z,42.93
2023-03-02T15:16:47.937Z,43.94
2023-03-02T15:21:52.841Z,43.64
2023-03-02T15:26:59.961Z,44.43
2023-03-02T15:32:03.552Z,45.47
2023-03-02T15:37:07.017Z,43.79
2023-03-02T15:42:13.800Z,45.33
2023-03-02T15:47:17.833Z,45.25
2023-03-02T15:52:21.559Z,44.65
2023-03-02T15:57:26.464Z,44.13
2023-03-02T16:02:29.959Z,44.30
2023-03-02T16:07:34.369Z,45.48
2023-03-02T16:12:39.789Z,45.46
2023-03-02T16:17:43.449Z,46.39
2023-03-02T16:22:47.037Z,46.47
2023-03-02T16:27:54.252Z,47.46
2023-03-02T16:32:58.872Z,45.67
2023-03-02T16:38:03.053Z,45.31
2023-03-02T16:43:08.997Z,46.06
2023-03-02T16:48:13.100Z,46.70
2023-03-02T16:53:18.020Z,46.00
2023-03-02T16:58:28.621Z,47.81
2023-03-02T17:03:32.208Z,47.02
2023-03-02T17:08:35.795Z,50.18
2023-03-02T17:13:40.907Z,47.48
2023-03-02T17:18:46.817Z,46.59
2023-03-02T17:23:50.387Z,47.13
2023-03-02T17:28:55.380Z,46.88
2023-03-02T17:33:58.846Z,48.36
2023-03-02T17:39:02.405Z,47.92
2023-03-02T17:44:07.341Z,48.27
2023-03-02T17:49:11.212Z,47.24
2023-03-02T17:54:14.667Z,46.92
2023-03-02T17:59:19.673Z,47.77
2023-03-02T18:04:23.315Z,46.65
2023-03-02T18:09:26.820Z,46.68
2023-03-02T18:14:35.364Z,47.58
2023-03-02T18:19:39.469Z,47.68
2023-03-02T18:24:43.235Z,47.69
2023-03-02T18:29:48.259Z,51.34
2023-03-02T18:34:51.689Z,48.14
2023-03-02T18:39:55.204Z,46.78
2023-03-02T18:45:00.232Z,46.98
2023-03-02T18:50:04.466Z,49.32
2023-03-02T18:55:09.013Z,47.03
2023-03-02T19:00:18.237Z,47.54
2023-03-02T19:05:21.971Z,46.91
2023-03-02T19:10:25.638Z,46.95
2023-03-02T19:15:33.012Z,46.78
2023-03-02T19:20:36.877Z,45.96
2023-03-02T19:25:40.483Z,45.21
2023-03-02T19:30:45.997Z,45.57
2023-03-02T19:35:52.019Z,45.83
2023-03-02T19:40:57.104Z,46.41
2023-03-02T19:46:02.144Z,46.22
2023-03-02T19:51:06.428Z,46.22
2023-03-02T19:56:12.825Z,46.06
2023-03-02T20:01:21.485Z,45.12
2023-03-02T20:06:30.452Z,45.54
2023-03-02T20:11:34.649Z,45.88
2023-03-02T20:16:40.015Z,45.55
2023-03-02T20:21:43.608Z,45.47
2023-03-02T20:26:47.125Z,46.03
2023-03-02T20:31:52.416Z,45.31
2023-03-02T20:36:55.985Z,45.20
2023-03-02T20:42:00.360Z,45.54
2023-03-02T20:47:08.304Z,45.34
2023-03-02T20:52:12.549Z,45.60
2023-03-02T20:57:17.736Z,45.51
2023-03-02T21:02:23.737Z,45.42
2023-03-02T21:07:27.240Z,46.42
2023-03-02T21:12:30.695Z,45.91
2023-03-02T21:17:36.527Z,45.91
2023-03-02T21:22:40.064Z,46.78
2023-03-02T21:27:44.125Z,45.59
2023-03-02T21:32:49.367Z,45.78
2023-03-02T21:37:55.143Z,45.84
2023-03-02T21:42:59.142Z,45.52
2023-03-02T21:48:05.105Z,46.43
2023-03-02T21:53:08.761Z,46.26
2023-03-02T21:58:12.212Z,46.04
2023-03-02T22:03:18.100Z,48.93
2023-03-02T22:08:22.064Z,49.07
2023-03-02T22:13:26.899Z,49.55
2023-03-02T22:18:32.579Z,47.61
2023-03-02T22:23:36.095Z,47.44
2023-03-02T22:28:41.009Z,47.45
2023-03-02T22:33:45.933Z,49.96
2023-03-02T22:38:49.756Z,49.27
2023-03-02T22:43:53.489Z,50.27
2023-03-02T22:48:58.344Z,48.44
2023-03-02T22:54:02.205Z,48.36
2023-03-02T22:59:10.460Z,49.82
2023-03-02T23:04:19.777Z,48.00
2023-03-02T23:09:25.570Z,49.57
2023-03-02T23:14:31.180Z,47.74
2023-03-02T23:19:36.109Z,48.57
2023-03-02T23:24:39.652Z,46.99
2023-03-02T23:29:43.431Z,46.68
2023-03-02T23:34:48.389Z,47.99
2023-03-02T23:39:52.096Z,48.84
2023-03-02T23:44:56.198Z,47.44
2023-03-02T23:50:00.993Z,47.89
2023-03-02T23:55:04.678Z,47.93
